ADDS METAR Data INFO
IDs: Format: Raw Decoded Include TAF

Data at: 1414 UTC 12 Dec 2017

KLAX 121353Z 06006KT 10SM CLR 17/M16 A3018 RMK AO2 SLP218 T01721161
KLAX 121253Z 10004KT 10SM FEW200 13/M13 A3018 RMK AO2 SLP217 T01281128
KLAX 121153Z VRB05KT 10SM FEW200 14/M13 A3019 RMK AO2 SLP219 T01441128 10178 20122 58002
KLAX 121053Z 11003KT 10SM FEW200 FEW250 13/M11 A3019 RMK AO2 SLP220 T01331106
KLAX 120953Z 00000KT 10SM FEW200 SCT250 16/M11 A3019 RMK AO2 SLP221 T01561111
KLAX 120853Z 05003KT 10SM FEW200 16/M10 A3019 RMK AO2 SLP219 T01611100 58001
KLAX 120753Z 12003KT 10SM FEW200 16/M08 A3019 RMK AO2 SLP220 T01611078 402830139
KLAX 120653Z 12005KT 10SM FEW200 16/M06 A3019 RMK AO2 SLP221 T01611061
KLAX 120553Z 00000KT 10SM FEW200 18/M02 A3019 RMK AO2 SLP220 T01781022 10228 20150 51003
KLAX 120453Z 00000KT 10SM FEW200 15/05 A3019 RMK AO2 SLP221 T01500050
KLAX 120353Z 00000KT 10SM FEW200 17/05 A3019 RMK AO2 SLP220 T01670050
KLAX 120253Z 26006KT 10SM CLR 17/05 A3018 RMK AO2 SLP219 T01720050 53006
KLAX 120153Z 26007KT 10SM FEW200 18/02 A3017 RMK AO2 SLP216 T01830022
KLAX 120053Z 32003KT 10SM FEW200 FEW250 21/M02 A3016 RMK AO2 SLP212 T02061022
KLAX 112353Z 29009KT 10SM SCT200 SCT250 22/M06 A3016 RMK AO2 SLP212 T02221056 10283 20222 56002
KLAX 112253Z 29010KT 10SM FEW200 SCT250 24/M09 A3016 RMK AO2 SLP211 T02391089
KLAX 112153Z 27006KT 10SM FEW005 FEW080 SCT160 BKN220 24/M05 A3016 RMK AO2 SLP210 FU FEW005 T02441050
KLAX 112053Z VRB03KT 10SM FEW080 FEW110 SCT150 BKN200 28/M14 A3016 RMK AO2 SLP212 T02831139 58019
KLAX 111953Z 00000KT 10SM FEW100 SCT140 BKN180 28/M13 A3018 RMK AO2 SLP219 T02781128
KLAX 111853Z VRB04KT 10SM FEW100 SCT160 SCT200 27/M12 A3021 RMK AO2 SLP228 T02671117
KLAX 111753Z 06004KT 10SM FEW100 FEW180 BKN250 24/M10 A3022 RMK AO2 SLP232 T02391100 10239 20139 51017
KLAX 111653Z VRB04KT 10SM FEW100 SCT180 BKN250 22/M11 A3021 RMK AO2 SLP227 T02171106
KLAX 111553Z 09005KT 10SM SCT090 SCT180 BKN250 16/M09 A3020 RMK AO2 SLP223 T01611089
KLAX 111453Z 05005KT 10SM SCT090 SCT180 BKN250 17/M11 A3017 RMK AO2 SLP215 T01671106 53009
KLAX 111353Z VRB03KT 10SM SCT180 BKN250 15/M09 A3016 RMK AO2 SLP210 T01501094
KLAX 111253Z 00000KT 10SM FEW200 SCT280 17/M11 A3015 RMK AO2 SLP206 T01721106
KLAX 111153Z COR 06005KT 10SM FEW200 SCT280 16/M09 A3015 RMK AO2 SLP205 T01611089 10228 20156 58005
KLAX 111053Z 04005KT 10SM FEW200 BKN280 17/M08 A3016 RMK AO2 SLP209 T01721078
KLAX 110953Z 06003KT 10SM FEW200 BKN280 17/M08 A3017 RMK AO2 SLP212 T01721078
KLAX 110853Z 00000KT 10SM FEW200 BKN280 18/M08 A3016 RMK AO2 SLP210 T01781078 58001
KLAX 110753Z 00000KT 10SM SCT200 BKN280 21/M10 A3016 RMK AO2 SLP210 T02111100 402940106
KLAX 110653Z 00000KT 10SM SCT200 BKN280 20/M08 A3017 RMK AO2 SLP213 T02001078
KLAX 110553Z 04007KT 10SM SCT200 22/M08 A3016 RMK AO2 SLP211 T02171078 10278 20211 53014
KLAX 110453Z 00000KT 10SM BKN200 22/M09 A3015 RMK AO2 SLP206 T02171089
KLAX 110353Z 00000KT 10SM OVC200 22/M09 A3013 RMK AO2 SLP203 T02221089
KLAX 110253Z 00000KT 10SM OVC200 23/M11 A3012 RMK AO2 SLP199 T02331111 53014